createdAt,value
2017-10-07T00:01:55.679Z,89.80
2017-10-07T00:05:10.136Z,90.70
2017-10-07T00:08:17.143Z,90.80
2017-10-07T00:11:18.912Z,90.50
2017-10-07T00:17:45.616Z,90.80
2017-10-07T00:20:47.182Z,90.20
2017-10-07T00:23:49.729Z,90.90
2017-10-07T00:26:51.991Z,91.00
2017-10-07T00:30:01.595Z,90.60
2017-10-07T00:33:04.830Z,90.70
2017-10-07T00:36:15.368Z,91.20
2017-10-07T00:39:16.999Z,90.90
2017-10-07T00:42:18.652Z,90.20
2017-10-07T00:45:30.538Z,90.80
2017-10-07T00:48:32.993Z,90.70
2017-10-07T00:51:34.598Z,90.50
2017-10-07T00:54:38.518Z,90.70
2017-10-07T00:57:43.875Z,90.50
2017-10-07T01:00:52.848Z,90.60
2017-10-07T01:04:01.373Z,90.80
2017-10-07T01:07:03.971Z,90.70
2017-10-07T01:10:07.283Z,90.10
2017-10-07T01:13:11.971Z,90.50
2017-10-07T01:16:22.300Z,90.50
2017-10-07T01:19:26.026Z,90.50
2017-10-07T01:22:27.745Z,90.00
2017-10-07T01:25:33.415Z,90.00
2017-10-07T01:28:40.934Z,90.30
2017-10-07T01:31:47.385Z,90.60
2017-10-07T01:34:50.490Z,89.90
2017-10-07T01:44:24.292Z,90.10
2017-10-07T01:47:25.868Z,89.90
2017-10-07T01:50:34.234Z,89.70
2017-10-07T01:53:38.816Z,89.90
2017-10-07T01:59:50.604Z,89.80
2017-10-07T02:02:56.729Z,88.70
2017-10-07T02:06:05.010Z,89.80
2017-10-07T02:09:09.487Z,89.40
2017-10-07T02:12:11.733Z,89.90
2017-10-07T02:15:17.970Z,89.30
2017-10-07T02:18:29.132Z,89.60
2017-10-07T02:25:04.834Z,88.70
2017-10-07T02:28:07.541Z,89.20
2017-10-07T02:31:16.058Z,88.60
2017-10-07T02:37:53.396Z,89.30
2017-10-07T02:41:01.838Z,90.10
2017-10-07T02:47:16.828Z,89.40
2017-10-07T02:53:55.140Z,88.50
2017-10-07T02:57:03.286Z,90.00
2017-10-07T03:00:17.026Z,88.90
2017-10-07T03:03:18.575Z,89.00
2017-10-07T03:06:21.757Z,88.50
2017-10-07T03:09:23.342Z,87.90
2017-10-07T04:01:48.922Z,88.30
2017-10-07T04:04:50.567Z,88.10
2017-10-07T04:07:52.269Z,87.40
2017-10-07T04:10:57.617Z,87.90
2017-10-07T04:14:01.549Z,87.60
2017-10-07T04:17:18.865Z,88.40
2017-10-07T04:20:21.187Z,87.60
2017-10-07T04:29:53.508Z,86.00
2017-10-07T04:32:55.277Z,87.70
2017-10-07T04:36:06.824Z,86.70
2017-10-07T04:39:08.459Z,85.40
2017-10-07T04:42:18.818Z,87.70
2017-10-07T04:45:23.966Z,87.00
2017-10-07T04:48:31.659Z,87.70
2017-10-07T04:51:34.917Z,86.50
2017-10-07T04:54:45.616Z,85.80
2017-10-07T04:57:51.292Z,87.30
2017-10-07T05:00:53.045Z,88.20
2017-10-07T05:04:04.826Z,85.60
2017-10-07T05:07:07.395Z,86.00
2017-10-07T05:10:09.007Z,84.70
2017-10-07T05:13:10.733Z,84.30
2017-10-07T05:16:13.334Z,83.40
2017-10-07T05:19:31.149Z,85.70
2017-10-07T05:22:37.460Z,84.10
2017-10-07T05:25:39.896Z,83.30
2017-10-07T05:28:45.676Z,84.60
2017-10-07T05:31:48.917Z,84.20
2017-10-07T05:34:52.699Z,83.10
2017-10-07T05:41:38.238Z,83.60
2017-10-07T06:24:38.781Z,84.20
2017-10-07T06:31:19.370Z,84.70
2017-10-07T06:34:37.340Z,82.30
2017-10-07T06:52:05.568Z,81.00
2017-10-07T06:59:07.511Z,80.40
2017-10-07T07:02:16.472Z,79.80
2017-10-07T07:05:20.908Z,80.30
2017-10-07T07:08:24.022Z,79.50
2017-10-07T07:11:27.219Z,78.90
2017-10-07T07:14:28.745Z,80.00
2017-10-07T07:17:30.430Z,79.00
2017-10-07T07:20:32.104Z,79.10
2017-10-07T07:23:35.921Z,79.80
2017-10-07T07:26:37.655Z,79.70
2017-10-07T07:29:42.215Z,78.30
2017-10-07T07:32:54.163Z,78.00
2017-10-07T07:35:56.447Z,78.50
2017-10-07T07:39:05.975Z,78.30
2017-10-07T07:42:10.226Z,78.20
2017-10-07T07:45:15.790Z,78.40
2017-10-07T07:48:22.838Z,78.60
2017-10-07T07:51:36.227Z,78.00
2017-10-07T07:54:41.315Z,79.40
2017-10-07T07:57:43.685Z,78.50
2017-10-07T08:00:45.383Z,78.70
2017-10-07T08:03:48.037Z,77.40
2017-10-07T08:06:51.217Z,79.00
2017-10-07T08:15:07.067Z,78.30
2017-10-07T08:18:12.290Z,78.30
2017-10-07T08:21:15.648Z,78.40
2017-10-07T08:24:19.463Z,77.80
2017-10-07T08:27:25.577Z,76.50
2017-10-07T08:30:32.058Z,77.10
2017-10-07T08:33:48.628Z,77.20
2017-10-07T08:36:50.197Z,77.20
2017-10-07T08:40:14.911Z,78.60
2017-10-07T08:43:31.551Z,78.70
2017-10-07T09:43:27.411Z,80.60
2017-10-07T10:05:27.770Z,78.30
2017-10-07T10:08:34.389Z,77.70
2017-10-07T10:11:49.725Z,78.30
2017-10-07T10:14:55.116Z,77.70
2017-10-07T10:17:58.985Z,78.40
2017-10-07T10:21:09.061Z,77.90
2017-10-07T10:24:34.256Z,78.00
2017-10-07T10:27:47.247Z,78.70
2017-10-07T10:30:49.092Z,78.80
2017-10-07T10:33:50.793Z,78.20
2017-10-07T10:52:35.481Z,78.90
2017-10-07T10:59:48.510Z,77.60
2017-10-07T11:03:07.322Z,79.40
2017-10-07T11:13:18.085Z,81.50
2017-10-07T11:16:20.267Z,83.00
2017-10-07T11:19:28.513Z,83.70
2017-10-07T11:22:33.990Z,84.70
2017-10-07T11:25:35.719Z,86.00
2017-10-07T11:28:39.400Z,85.80
2017-10-07T11:31:45.899Z,87.70
2017-10-07T11:34:47.559Z,87.30
2017-10-07T11:37:49.125Z,87.00
2017-10-07T11:40:53.253Z,87.10
2017-10-07T11:43:56.761Z,88.20
2017-10-07T11:46:59.479Z,88.00
2017-10-07T11:50:03.910Z,89.80
2017-10-07T11:53:06.203Z,89.20
2017-10-07T11:56:09.027Z,88.60
2017-10-07T11:59:11.378Z,89.70
2017-10-07T12:02:18.756Z,89.80
2017-10-07T12:05:29.686Z,89.60
2017-10-07T12:08:34.930Z,89.90
2017-10-07T12:11:40.327Z,90.80
2017-10-07T12:14:44.906Z,90.60
2017-10-07T12:21:11.345Z,91.10
2017-10-07T12:24:15.077Z,90.80
2017-10-07T12:27:18.124Z,91.30
2017-10-07T12:30:22.602Z,91.40
2017-10-07T12:33:29.053Z,91.90
2017-10-07T12:36:32.138Z,91.20
2017-10-07T12:39:34.970Z,91.20
2017-10-07T12:43:11.151Z,90.90
2017-10-07T12:46:18.770Z,90.70
2017-10-07T12:49:40.079Z,90.40
2017-10-07T12:53:40.231Z,91.30
2017-10-07T12:56:53.603Z,91.30
2017-10-07T12:59:55.212Z,91.60
2017-10-07T13:02:56.812Z,90.90
2017-10-07T13:05:58.471Z,90.90
2017-10-07T13:09:00.057Z,90.40
2017-10-07T13:12:01.696Z,91.10
2017-10-07T13:15:03.241Z,91.40
2017-10-07T13:18:05.659Z,91.40
2017-10-07T13:21:08.067Z,91.20
2017-10-07T13:27:17.940Z,91.20
2017-10-07T13:30:20.239Z,91.80
2017-10-07T13:33:21.846Z,91.40
2017-10-07T13:36:24.646Z,91.30
2017-10-07T13:39:26.974Z,91.90
2017-10-07T13:42:29.922Z,91.60
2017-10-07T13:45:32.462Z,91.30
2017-10-07T13:48:34.066Z,91.30
2017-10-07T13:51:37.350Z,91.90
2017-10-07T13:54:39.659Z,92.00
2017-10-07T13:57:41.968Z,91.60
2017-10-07T14:00:44.333Z,92.30
2017-10-07T14:04:04.563Z,91.80
2017-10-07T14:07:08.882Z,92.40
2017-10-07T14:10:16.009Z,91.40
2017-10-07T14:13:19.424Z,91.50
2017-10-07T14:16:30.839Z,91.80
2017-10-07T14:19:33.977Z,91.90
2017-10-07T14:22:35.622Z,91.70
2017-10-07T14:25:37.226Z,91.40
2017-10-07T14:28:39.810Z,91.40
2017-10-07T14:31:47.239Z,91.20
2017-10-07T14:34:48.865Z,92.00
2017-10-07T14:37:51.423Z,92.00
2017-10-07T14:40:53.005Z,91.60
2017-10-07T14:43:54.517Z,92.00
2017-10-07T14:46:56.108Z,92.10
2017-10-07T14:49:57.632Z,91.70
2017-10-07T14:52:59.179Z,92.40
2017-10-07T14:56:00.768Z,92.40
2017-10-07T14:59:03.009Z,92.00
2017-10-07T15:02:04.676Z,91.70
2017-10-07T15:05:06.280Z,91.80
2017-10-07T15:08:08.597Z,92.10
2017-10-07T15:11:11.990Z,91.80
2017-10-07T15:14:14.351Z,91.80
2017-10-07T15:17:16.884Z,92.00
2017-10-07T15:20:19.248Z,92.40
2017-10-07T15:23:21.590Z,92.70
2017-10-07T15:26:23.224Z,92.40
2017-10-07T15:29:25.343Z,92.30
2017-10-07T15:32:31.642Z,92.60
2017-10-07T15:35:35.013Z,92.50
2017-10-07T15:38:37.302Z,92.60
2017-10-07T15:41:40.576Z,92.90
2017-10-07T15:44:42.119Z,92.50
2017-10-07T15:47:43.774Z,92.60
2017-10-07T15:50:46.097Z,92.80
2017-10-07T15:53:48.405Z,92.90
2017-10-07T15:56:49.961Z,92.50
2017-10-07T15:59:51.805Z,92.20
2017-10-07T16:02:54.428Z,93.10
2017-10-07T16:05:56.161Z,92.10
2017-10-07T16:08:59.476Z,92.50
2017-10-07T16:12:01.715Z,92.70
2017-10-07T16:15:03.342Z,92.20
2017-10-07T16:18:05.687Z,92.90
2017-10-07T16:21:07.256Z,92.50
2017-10-07T16:24:08.839Z,92.90
2017-10-07T16:27:10.463Z,93.00
2017-10-07T16:30:12.058Z,92.90
2017-10-07T16:33:13.685Z,92.80
2017-10-07T16:36:16.016Z,93.20
2017-10-07T16:39:18.612Z,92.80
2017-10-07T16:42:20.226Z,93.00
2017-10-07T16:45:22.529Z,92.70
2017-10-07T16:48:24.179Z,92.70
2017-10-07T16:51:27.350Z,92.90
2017-10-07T16:54:29.953Z,93.10
2017-10-07T16:57:32.940Z,92.70
2017-10-07T17:00:34.616Z,92.80
2017-10-07T17:03:43.989Z,92.60
2017-10-07T17:06:47.284Z,93.20
2017-10-07T17:09:49.776Z,93.30
2017-10-07T17:12:51.502Z,93.20
2017-10-07T17:15:58.916Z,93.20
2017-10-07T17:19:08.351Z,93.10
2017-10-07T17:36:45.614Z,93.10
2017-10-07T17:39:53.336Z,92.90
2017-10-07T17:42:57.336Z,93.20
2017-10-07T17:46:05.777Z,93.00
2017-10-07T17:52:33.847Z,93.10
2017-10-07T17:59:31.465Z,93.50
2017-10-07T18:02:33.131Z,93.10
2017-10-07T18:05:34.702Z,93.60
2017-10-07T18:08:38.256Z,93.80
2017-10-07T18:11:42.318Z,93.50
2017-10-07T18:14:48.010Z,93.10
2017-10-07T18:17:54.125Z,93.80
2017-10-07T18:20:55.936Z,94.00
2017-10-07T18:23:59.682Z,93.60
2017-10-07T18:27:04.866Z,93.50
2017-10-07T18:30:21.066Z,93.20
2017-10-07T18:33:23.920Z,93.90
2017-10-07T18:36:27.586Z,93.70
2017-10-07T18:39:29.887Z,93.50
2017-10-07T18:42:33.586Z,93.00
2017-10-07T18:45:35.057Z,93.70
2017-10-07T18:48:43.077Z,93.50
2017-10-07T18:51:45.482Z,93.50
2017-10-07T18:54:47.203Z,93.70
2017-10-07T18:58:00.545Z,93.40
2017-10-07T19:01:02.871Z,94.20
2017-10-07T19:04:04.485Z,93.30
2017-10-07T19:07:08.041Z,93.40
2017-10-07T19:10:17.580Z,93.10
2017-10-07T19:13:22.307Z,94.00
2017-10-07T19:16:23.852Z,93.60
2017-10-07T19:19:43.284Z,93.90
2017-10-07T19:22:45.722Z,94.10
2017-10-07T19:25:51.511Z,93.50
2017-10-07T19:32:05.578Z,93.70
2017-10-07T19:35:07.601Z,94.00
2017-10-07T19:38:19.157Z,93.40
2017-10-07T19:41:21.437Z,93.60
2017-10-07T19:44:23.109Z,93.70
2017-10-07T19:50:46.456Z,93.50
2017-10-07T19:53:50.929Z,93.90
2017-10-07T19:57:01.991Z,93.80
2017-10-07T20:00:04.289Z,93.30
2017-10-07T20:03:05.853Z,93.50
2017-10-07T20:06:08.845Z,93.40
2017-10-07T20:09:10.419Z,93.70
2017-10-07T20:12:19.214Z,93.60
2017-10-07T20:15:23.053Z,93.30
2017-10-07T20:22:11.034Z,93.80
2017-10-07T20:25:13.579Z,94.00
2017-10-07T20:28:16.768Z,93.50
2017-10-07T20:31:19.293Z,94.20
2017-10-07T20:34:21.649Z,93.80
2017-10-07T20:37:23.147Z,93.40
2017-10-07T20:40:25.686Z,93.40
2017-10-07T20:43:30.075Z,93.40
2017-10-07T20:46:31.553Z,93.20
2017-10-07T20:49:33.088Z,93.30
2017-10-07T20:52:34.723Z,93.20
2017-10-07T20:55:43.549Z,93.30
2017-10-07T20:58:52.683Z,93.50
2017-10-07T21:01:56.529Z,93.60
2017-10-07T21:04:58.036Z,93.90
2017-10-07T21:08:02.384Z,93.40
2017-10-07T21:11:04.617Z,93.40
2017-10-07T21:14:07.126Z,93.60
2017-10-07T21:17:13.461Z,93.50
2017-10-07T21:20:15.811Z,94.00
2017-10-07T21:23:18.093Z,93.70
2017-10-07T21:26:19.740Z,94.30
2017-10-07T21:29:30.301Z,93.60
2017-10-07T21:32:33.054Z,94.10
2017-10-07T21:35:38.843Z,93.30
2017-10-07T21:38:40.440Z,93.40
2017-10-07T21:41:42.024Z,93.40
2017-10-07T21:44:45.131Z,93.60
2017-10-07T21:47:50.274Z,93.50
2017-10-07T21:50:55.634Z,93.90
2017-10-07T21:57:12.294Z,93.70
2017-10-07T22:00:13.812Z,93.60
2017-10-07T22:03:15.385Z,93.80
2017-10-07T22:06:17.020Z,93.80
2017-10-07T22:09:18.773Z,93.90
2017-10-07T22:12:21.338Z,93.60
2017-10-07T22:15:29.705Z,94.10
2017-10-07T22:18:32.960Z,94.10
2017-10-07T22:21:35.501Z,93.70
2017-10-07T22:24:47.227Z,94.20
2017-10-07T22:27:53.939Z,95.30
2017-10-07T22:30:57.275Z,94.50
2017-10-07T22:34:03.718Z,94.10
2017-10-07T22:37:16.264Z,93.90
2017-10-07T22:40:21.894Z,93.90
2017-10-07T22:43:23.482Z,94.30
2017-10-07T22:46:25.062Z,93.80
2017-10-07T22:49:27.275Z,93.90
2017-10-07T22:52:29.628Z,94.30
2017-10-07T22:55:32.636Z,94.30
2017-10-07T22:58:38.915Z,94.30
2017-10-07T23:19:11.253Z,94.80
2017-10-07T23:22:31.254Z,94.00
2017-10-07T23:25:36.752Z,94.50
2017-10-07T23:28:39.072Z,94.30
2017-10-07T23:38:06.342Z,94.20
